Time;durP1;ratioP1;P1;durP2;ratioP2;P2;SDS_P1;SDS_P2;PMS_P1;PMS_P2;Temp;Humidity;BMP_temperature;BMP_pressure;BME280_temperature;BME280_humidity;BME280_pressure;Samples;Min_cycle;Max_cycle;Signal;HPM_P1;HPM_P2
2021/12/08 00:00:50;;;;;;;4.20;1.90;;;-7.50;99.90;;;;;;5113149;28;20043;-64
2021/12/08 00:03:16;;;;;;;3.10;1.90;;;-7.50;99.90;;;;;;5113532;28;20031;-64
2021/12/08 00:05:44;;;;;;;3.22;1.88;;;-7.40;99.90;;;;;;5112998;28;20027;-64
2021/12/08 00:08:13;;;;;;;1.60;1.50;;;-7.40;99.90;;;;;;5113157;28;20030;-64
2021/12/08 00:13:00;;;;;;;2.38;1.83;;;-7.40;99.90;;;;;;5112676;28;20024;-64
2021/12/08 00:13:27;;;;;;;2.00;1.50;;;-7.40;99.90;;;;;;5112896;28;20063;-64
2021/12/08 00:15:55;;;;;;;5.57;1.70;;;-7.50;99.90;;;;;;5112827;28;20070;-65
2021/12/08 00:18:25;;;;;;;5.90;2.00;;;-7.50;99.90;;;;;;5112783;28;20024;-69
2021/12/08 00:20:53;;;;;;;3.53;2.00;;;-7.60;99.90;;;;;;5112576;28;20051;-66
2021/12/08 00:23:24;;;;;;;2.00;1.77;;;-7.50;99.90;;;;;;5112726;28;20012;-66
2021/12/08 00:25:50;;;;;;;;;;;-7.50;99.90;;;;;;5112992;28;20470;-66
2021/12/08 00:28:16;;;;;;;2.45;1.65;;;-7.50;99.90;;;;;;5112855;28;19947;-66
2021/12/08 00:30:45;;;;;;;2.42;1.70;;;-7.50;99.90;;;;;;5112538;28;20058;-66
2021/12/08 00:33:12;;;;;;;3.35;1.73;;;-7.50;99.90;;;;;;5112679;28;20031;-66
2021/12/08 00:35:40;;;;;;;1.92;1.67;;;-7.60;99.90;;;;;;5112544;28;20027;-66
2021/12/08 00:38:06;;;;;;;2.47;1.98;;;-7.70;99.90;;;;;;5112275;28;20031;-66
2021/12/08 00:40:32;;;;;;;4.00;1.90;;;-7.70;99.90;;;;;;5112566;28;20028;-66
2021/12/08 00:42:58;;;;;;;2.22;1.90;;;-7.70;99.90;;;;;;5112353;28;20031;-66
2021/12/08 00:45:25;;;;;;;2.00;1.60;;;-7.70;99.90;;;;;;5112513;28;20019;-66
2021/12/08 00:47:53;;;;;;;4.20;1.92;;;-7.70;99.90;;;;;;5112191;28;20102;-66
2021/12/08 00:50:21;;;;;;;2.05;1.35;;;-7.60;99.90;;;;;;5112653;28;20102;-67
2021/12/08 00:52:49;;;;;;;1.75;1.65;;;-7.70;99.90;;;;;;5112537;28;20032;-65
2021/12/08 00:55:15;;;;;;;5.22;1.80;;;-7.60;99.90;;;;;;5112384;28;20483;-65
2021/12/08 00:57:42;;;;;;;1.90;1.80;;;-7.70;99.90;;;;;;5112276;28;20040;-65
2021/12/08 01:00:13;;;;;;;3.15;1.85;;;-7.70;99.90;;;;;;5112122;28;20044;-65
2021/12/08 01:02:39;;;;;;;2.63;1.75;;;-7.70;99.90;;;;;;5112483;28;20096;-65
2021/12/08 01:05:17;;;;;;;1.80;1.70;;;-7.70;99.90;;;;;;5112345;28;20052;-65
2021/12/08 01:07:44;;;;;;;2.58;1.88;;;-7.70;99.90;;;;;;5112405;28;20390;-65
2021/12/08 01:10:22;;;;;;;5.80;1.80;;;-7.70;99.90;;;;;;5112372;28;20024;-65
2021/12/08 01:12:48;;;;;;;3.05;1.63;;;-7.70;99.90;;;;;;5112175;28;20043;-66
2021/12/08 01:15:14;;;;;;;2.58;2.17;;;-7.70;99.90;;;;;;5112400;28;20028;-66
2021/12/08 01:17:40;;;;;;;1.70;1.60;;;-7.70;99.90;;;;;;5112360;28;20059;-66
2021/12/08 01:20:10;;;;;;;3.13;1.75;;;-7.80;99.90;;;;;;5112073;28;20047;-66
2021/12/08 01:22:37;;;;;;;3.07;1.80;;;-7.80;99.90;;;;;;5112156;28;20020;-66
2021/12/08 01:25:03;;;;;;;2.95;2.38;;;-7.80;99.90;;;;;;5112159;28;20043;-66
2021/12/08 01:27:31;;;;;;;2.75;1.88;;;-7.70;99.90;;;;;;5112437;28;20032;-66
2021/12/08 01:29:56;;;;;;;1.90;1.70;;;-7.70;99.90;;;;;;5112226;28;20020;-66
2021/12/08 01:32:22;;;;;;;4.72;1.92;;;-7.70;99.90;;;;;;5112268;28;20036;-66
2021/12/08 01:34:48;;;;;;;3.33;1.80;;;-7.70;99.90;;;;;;5112088;28;20439;-67
2021/12/08 01:37:14;;;;;;;3.75;1.90;;;-7.80;99.90;;;;;;5112011;28;20102;-66
2021/12/08 01:39:40;;;;;;;2.85;1.70;;;-7.80;99.90;;;;;;5111829;28;20027;-66
2021/12/08 01:42:15;;;;;;;3.45;1.75;;;-7.80;99.90;;;;;;5111995;28;20031;-65
2021/12/08 01:47:27;;;;;;;2.22;1.77;;;-7.60;99.90;;;;;;5111970;28;20062;-64
2021/12/08 01:49:52;;;;;;;2.05;1.83;;;-7.70;99.90;;;;;;5111911;28;20035;-64
2021/12/08 01:52:18;;;;;;;3.80;1.70;;;-7.70;99.90;;;;;;5111931;28;20043;-64
2021/12/08 01:54:44;;;;;;;4.05;1.70;;;-7.70;99.90;;;;;;5115425;28;20417;-64
2021/12/08 01:57:10;;;;;;;1.75;1.63;;;-7.70;99.90;;;;;;5115518;28;20383;-64
2021/12/08 01:59:36;;;;;;;2.17;1.73;;;-7.70;99.90;;;;;;5115458;28;20075;-64
2021/12/08 02:02:01;;;;;;;1.88;1.60;;;-7.80;99.90;;;;;;5115187;28;20039;-64
2021/12/08 02:04:27;;;;;;;1.65;1.55;;;-7.80;99.90;;;;;;5115287;28;20022;-64
2021/12/08 02:06:53;;;;;;;1.98;1.70;;;-7.70;99.90;;;;;;5115180;28;20023;-64
2021/12/08 02:09:19;;;;;;;2.75;1.70;;;-7.70;99.90;;;;;;5115086;28;20035;-64
2021/12/08 02:11:46;;;;;;;2.33;1.63;;;-7.70;99.90;;;;;;5115271;28;20040;-64
2021/12/08 02:14:14;;;;;;;2.67;1.80;;;-7.70;99.90;;;;;;5115273;28;20023;-64
2021/12/08 02:16:40;;;;;;;1.80;1.70;;;-7.70;99.90;;;;;;5115220;28;20445;-64
2021/12/08 02:19:06;;;;;;;3.55;1.73;;;-7.70;99.90;;;;;;5114928;28;20026;-64
2021/12/08 02:21:35;;;;;;;2.65;1.77;;;-7.70;99.90;;;;;;5115190;28;20396;-64
2021/12/08 02:24:10;;;;;;;2.55;1.90;;;-7.80;99.90;;;;;;5114775;28;20049;-64
2021/12/08 02:55:41;;;;;;;2.90;1.88;;;-7.80;99.90;;;;;;5114516;28;20383;-64
2021/12/08 02:58:07;;;;;;;4.60;1.90;;;-7.80;99.90;;;;;;5114702;28;20483;-64
2021/12/08 03:00:38;;;;;;;2.90;1.63;;;-7.80;99.90;;;;;;5114203;28;20047;-64
2021/12/08 03:03:04;;;;;;;2.85;1.88;;;-7.90;99.90;;;;;;5114293;28;20027;-64
2021/12/08 03:05:31;;;;;;;5.20;1.77;;;-8.00;99.90;;;;;;5114155;28;20023;-64
2021/12/08 03:07:58;;;;;;;1.70;1.60;;;-8.00;99.90;;;;;;5113995;27;20049;-64
2021/12/08 03:10:28;;;;;;;2.67;1.73;;;-8.00;99.90;;;;;;5113756;28;20024;-64
2021/12/08 03:12:54;;;;;;;1.60;1.50;;;-8.10;99.90;;;;;;5113907;28;20065;-64
2021/12/08 03:15:20;;;;;;;2.00;1.63;;;-8.10;99.90;;;;;;5113852;27;20043;-64
2021/12/08 03:17:46;;;;;;;4.00;1.73;;;-8.10;99.90;;;;;;5113819;28;20503;-65
2021/12/08 03:20:16;;;;;;;1.70;1.40;;;-8.10;99.90;;;;;;5113942;28;20571;-65
2021/12/08 03:22:47;;;;;;;3.85;1.75;;;-8.30;99.90;;;;;;5113765;28;20030;-65
2021/12/08 03:25:17;;;;;;;2.38;1.60;;;-8.40;99.90;;;;;;5113681;28;20028;-65
2021/12/08 03:28:03;;;;;;;2.28;1.80;;;-8.40;99.90;;;;;;5113614;28;20027;-65
2021/12/08 03:30:35;;;;;;;2.58;1.70;;;-8.40;99.90;;;;;;5113462;28;20024;-65
2021/12/08 03:33:01;;;;;;;1.77;1.52;;;-8.30;99.90;;;;;;5113813;28;20032;-65
2021/12/08 03:35:27;;;;;;;1.77;1.67;;;-8.40;99.90;;;;;;5113680;28;20352;-65
2021/12/08 03:37:54;;;;;;;3.00;1.70;;;-8.40;99.90;;;;;;5113235;28;20471;-65
2021/12/08 03:40:23;;;;;;;1.73;1.60;;;-8.50;99.90;;;;;;5113609;28;20024;-65
2021/12/08 03:42:52;;;;;;;1.70;1.60;;;-8.50;99.90;;;;;;5113301;28;20099;-65
2021/12/08 03:45:22;;;;;;;3.30;2.00;;;-8.60;99.90;;;;;;5113227;28;20032;-64
2021/12/08 03:47:57;;;;;;;2.25;1.67;;;-8.60;99.90;;;;;;5113210;28;20489;-65
2021/12/08 03:50:23;;;;;;;3.60;1.85;;;-8.60;99.90;;;;;;5113307;28;20027;-65
2021/12/08 03:52:49;;;;;;;3.28;1.77;;;-8.60;99.90;;;;;;5113222;28;20390;-66
2021/12/08 03:55:16;;;;;;;3.25;1.95;;;-8.70;99.90;;;;;;5113056;28;20062;-65
2021/12/08 03:57:42;;;;;;;2.95;1.80;;;-8.80;99.90;;;;;;5113061;28;20034;-66
2021/12/08 04:00:13;;;;;;;3.28;1.80;;;-8.80;99.90;;;;;;5113167;28;20043;-67
2021/12/08 04:02:39;;;;;;;1.88;1.38;;;-8.90;99.90;;;;;;5113279;28;20024;-67
2021/12/08 04:05:06;;;;;;;2.28;1.65;;;-9.00;99.90;;;;;;5113050;28;20092;-67
2021/12/08 04:07:32;;;;;;;2.97;1.60;;;-9.00;99.90;;;;;;5112729;28;20150;-66
2021/12/08 04:09:58;;;;;;;4.82;1.52;;;-9.00;99.90;;;;;;5112918;28;20063;-67
2021/12/08 04:12:24;;;;;;;1.75;1.65;;;-9.10;99.90;;;;;;5112616;28;20027;-65
2021/12/08 04:15:01;;;;;;;1.90;1.65;;;-9.10;99.90;;;;;;5113191;28;20020;-65
2021/12/08 04:17:29;;;;;;;1.67;1.58;;;-9.20;99.90;;;;;;5112253;28;20028;-65
2021/12/08 04:19:57;;;;;;;3.33;1.50;;;-9.30;99.90;;;;;;5112891;28;20038;-66
2021/12/08 04:22:33;;;;;;;2.78;1.65;;;-9.40;99.90;;;;;;5112691;28;20094;-65
2021/12/08 04:25:06;;;;;;;2.33;1.83;;;-9.40;99.90;;;;;;5112958;28;20383;-67
2021/12/08 04:27:36;;;;;;;1.50;1.40;;;-9.60;99.60;;;;;;5112567;28;20023;-65
2021/12/08 04:30:06;;;;;;;3.50;1.48;;;-9.70;99.90;;;;;;5112662;28;20069;-65
2021/12/08 04:32:33;;;;;;;;;;;-9.70;99.90;;;;;;5113091;28;20081;-65
2021/12/08 04:35:02;;;;;;;2.88;1.77;;;-9.70;99.90;;;;;;5112759;28;20310;-65
2021/12/08 04:37:33;;;;;;;1.60;1.50;;;-9.70;99.90;;;;;;5112279;28;20027;-65
2021/12/08 04:40:44;;;;;;;2.38;1.55;;;-9.70;99.90;;;;;;5112551;28;20447;-65
2021/12/08 04:46:12;;;;;;;1.98;1.50;;;-9.80;98.60;;;;;;5112349;28;19965;-65
2021/12/08 05:00:18;;;;;;;6.38;1.80;;;-10.00;98.60;;;;;;5112515;28;20026;-65
2021/12/08 05:03:04;;;;;;;4.57;2.40;;;-10.10;97.70;;;;;;5112276;28;20027;-64
2021/12/08 05:06:04;;;;;;;5.82;2.20;;;-10.10;98.70;;;;;;5112069;28;20081;-64
2021/12/08 05:08:44;;;;;;;2.00;1.80;;;-10.30;97.70;;;;;;5111866;28;20030;-65
2021/12/08 05:11:28;;;;;;;3.28;1.42;;;-10.40;97.60;;;;;;5112015;28;20032;-63
2021/12/08 05:14:03;;;;;;;1.65;1.55;;;-10.50;97.60;;;;;;5112269;28;20052;-63
2021/12/08 05:16:31;;;;;;;2.20;1.50;;;-10.60;97.30;;;;;;5111858;28;20031;-63
2021/12/08 05:18:59;;;;;;;3.92;1.65;;;-10.60;98.00;;;;;;5111903;28;20024;-64
2021/12/08 05:21:24;;;;;;;4.20;1.80;;;-10.60;98.40;;;;;;5112007;28;20020;-64
2021/12/08 05:24:00;;;;;;;1.63;1.50;;;-10.60;98.60;;;;;;5111733;28;20501;-64
2021/12/08 05:26:40;;;;;;;3.63;1.88;;;-10.60;98.20;;;;;;5111793;28;20020;-64
2021/12/08 05:29:12;;;;;;;2.50;1.73;;;-10.70;98.00;;;;;;5114453;28;20062;-65
2021/12/08 05:31:38;;;;;;;2.42;1.75;;;-10.80;98.20;;;;;;5115389;28;20078;-64
2021/12/08 05:34:05;;;;;;;4.45;1.73;;;-10.80;98.80;;;;;;5115793;28;20055;-64
2021/12/08 05:36:31;;;;;;;2.47;1.75;;;-10.70;98.70;;;;;;5115469;28;20538;-64
2021/12/08 05:38:59;;;;;;;2.65;2.00;;;-10.80;97.70;;;;;;5115560;28;20102;-66
2021/12/08 05:41:34;;;;;;;1.70;1.60;;;-10.80;98.50;;;;;;5114921;28;20031;-66
2021/12/08 05:44:00;;;;;;;2.20;1.63;;;-9.50;99.90;;;;;;5112056;28;20016;-65
2021/12/08 05:46:30;;;;;;;3.13;1.77;;;-9.20;99.90;;;;;;5105350;28;20028;-66
2021/12/08 05:48:56;;;;;;;2.53;1.70;;;-9.60;99.90;;;;;;5102946;28;20559;-65
2021/12/08 05:51:25;;;;;;;2.17;1.80;;;-9.90;99.90;;;;;;5104026;28;20286;-66
2021/12/08 05:53:54;;;;;;;1.77;1.67;;;-10.20;99.90;;;;;;5104189;28;20073;-66
2021/12/08 05:56:21;;;;;;;2.55;2.13;;;-10.30;99.90;;;;;;5104592;28;20027;-66
2021/12/08 05:58:49;;;;;;;1.77;1.67;;;-10.50;99.90;;;;;;5105391;28;20024;-66
2021/12/08 06:01:26;;;;;;;3.03;2.13;;;-10.60;99.90;;;;;;5106672;28;20051;-67
2021/12/08 06:03:52;;;;;;;2.55;1.88;;;-10.80;98.90;;;;;;5104907;28;20395;-65
2021/12/08 06:06:20;;;;;;;2.38;1.58;;;-10.90;98.70;;;;;;5104971;28;20042;-65
2021/12/08 06:08:46;;;;;;;1.75;1.60;;;-11.00;99.20;;;;;;5104902;28;20131;-65
2021/12/08 06:11:13;;;;;;;1.70;1.60;;;-11.00;98.70;;;;;;5103427;28;20095;-66
2021/12/08 06:13:42;;;;;;;2.15;1.95;;;-11.10;97.20;;;;;;5105663;28;20028;-64
2021/12/08 06:16:10;;;;;;;3.10;1.80;;;-11.20;97.00;;;;;;5104007;28;20024;-64
2021/12/08 06:18:39;;;;;;;2.65;1.98;;;-11.30;96.80;;;;;;5102204;28;20372;-64
2021/12/08 06:21:08;;;;;;;4.22;2.15;;;-11.40;96.60;;;;;;5097880;28;20050;-64
2021/12/08 06:23:35;;;;;;;2.67;2.10;;;-11.40;97.00;;;;;;5102887;28;20085;-64
2021/12/08 06:26:02;;;;;;;4.85;1.83;;;-11.40;96.70;;;;;;5104262;28;20395;-64
2021/12/08 06:28:28;;;;;;;5.95;2.90;;;-11.40;96.30;;;;;;5094065;28;20085;-66
2021/12/08 06:30:54;;;;;;;5.00;2.45;;;-11.40;96.30;;;;;;5094490;28;20032;-66
2021/12/08 06:33:20;;;;;;;5.68;2.08;;;-11.00;99.90;;;;;;5092811;28;20032;-65
2021/12/08 06:36:00;;;;;;;3.35;2.60;;;-11.10;99.90;;;;;;5094251;28;20023;-65
2021/12/08 06:38:26;;;;;;;;;;;-11.30;99.90;;;;;;5094506;28;20028;-65
2021/12/08 06:41:07;;;;;;;5.13;3.33;;;-11.50;99.00;;;;;;5093890;28;20386;-66
2021/12/08 06:43:35;;;;;;;;;;;-11.60;98.30;;;;;;5094543;28;20013;-65
2021/12/08 06:46:02;;;;;;;3.05;2.47;;;-11.30;99.90;;;;;;5094025;28;19911;-63
2021/12/08 06:48:37;;;;;;;3.15;2.22;;;-11.00;99.90;;;;;;5103203;28;20379;-64
2021/12/08 06:51:18;;;;;;;3.90;2.10;;;-11.20;99.90;;;;;;5101835;28;20103;-67
2021/12/08 06:53:49;;;;;;;4.63;2.08;;;-11.40;99.90;;;;;;5102360;28;20488;-66
2021/12/08 06:56:20;;;;;;;;;;;-11.60;99.90;;;;;;5104005;28;20024;-66
2021/12/08 06:58:50;;;;;;;2.50;1.63;;;-11.70;97.90;;;;;;5104622;28;20006;-66
2021/12/08 07:01:35;;;;;;;2.63;2.30;;;-11.80;97.40;;;;;;5102921;28;20044;-68
2021/12/08 07:04:28;;;;;;;3.03;2.05;;;-11.80;97.10;;;;;;5114082;28;20495;-67
2021/12/08 07:07:04;;;;;;;2.20;1.92;;;-11.80;96.80;;;;;;5114251;28;20020;-67
2021/12/08 07:09:43;;;;;;;8.80;2.22;;;-11.90;96.80;;;;;;5111253;28;20074;-68
2021/12/08 07:12:45;;;;;;;2.05;1.67;;;-11.90;95.30;;;;;;5102600;28;20034;-67
2021/12/08 07:15:25;;;;;;;4.80;2.50;;;-12.00;95.50;;;;;;5074873;28;20047;-65
2021/12/08 07:17:57;;;;;;;3.72;1.88;;;-12.00;94.80;;;;;;5095929;28;20077;-67
2021/12/08 07:20:45;;;;;;;3.50;2.03;;;-12.10;94.10;;;;;;5095788;28;20074;-67
2021/12/08 07:23:18;;;;;;;5.95;2.28;;;-12.20;94.10;;;;;;5104138;28;20043;-66
2021/12/08 07:25:45;;;;;;;3.22;2.35;;;-12.20;93.80;;;;;;5095886;28;20028;-64
2021/12/08 07:28:13;;;;;;;4.63;2.05;;;-12.30;94.20;;;;;;5093344;28;20028;-65
2021/12/08 07:30:45;;;;;;;4.10;2.15;;;-12.30;94.80;;;;;;5093268;28;20077;-64
2021/12/08 07:33:10;;;;;;;2.58;2.20;;;-12.40;94.70;;;;;;5093097;28;20111;-66
2021/12/08 07:35:42;;;;;;;2.67;2.47;;;-12.50;94.30;;;;;;5093167;28;20420;-66
2021/12/08 07:38:11;;;;;;;3.10;2.47;;;-12.50;94.50;;;;;;5093145;28;20106;-66
2021/12/08 07:40:43;;;;;;;3.92;2.47;;;-12.60;94.40;;;;;;5093138;28;20426;-65
2021/12/08 07:43:16;;;;;;;3.45;2.22;;;-12.70;94.30;;;;;;5097634;28;21287;-64
2021/12/08 07:45:51;;;;;;;2.88;2.17;;;-12.80;95.10;;;;;;5111273;28;20028;-65
2021/12/08 07:48:25;;;;;;;5.32;2.45;;;-12.80;95.60;;;;;;5110956;28;20031;-65
2021/12/08 07:51:03;;;;;;;12.10;2.55;;;-12.80;94.70;;;;;;5112014;28;20027;-64
2021/12/08 07:53:31;;;;;;;5.28;2.40;;;-12.80;94.60;;;;;;5112382;28;20110;-65
2021/12/08 07:56:03;;;;;;;2.83;2.58;;;-12.70;94.60;;;;;;5112648;28;20028;-65
2021/12/08 07:58:32;;;;;;;4.88;2.72;;;-12.70;95.30;;;;;;5112803;28;20031;-65
2021/12/08 08:01:08;;;;;;;3.58;2.35;;;-12.70;95.40;;;;;;5109030;28;20520;-64
2021/12/08 08:03:35;;;;;;;4.60;2.70;;;-12.70;95.80;;;;;;5091868;28;20071;-64
2021/12/08 08:06:07;;;;;;;4.80;2.65;;;-12.70;95.70;;;;;;5092378;28;20054;-66
2021/12/08 08:08:34;;;;;;;2.25;1.98;;;-12.80;95.60;;;;;;5090294;28;20361;-64
2021/12/08 08:11:07;;;;;;;3.28;2.40;;;-12.80;95.20;;;;;;5091897;28;20016;-64
2021/12/08 08:13:34;;;;;;;2.63;2.17;;;-12.90;94.70;;;;;;5091571;28;20036;-65
2021/12/08 08:16:07;;;;;;;2.25;2.03;;;-12.90;94.50;;;;;;5091501;28;20047;-64
2021/12/08 08:18:37;;;;;;;3.15;2.15;;;-12.90;94.20;;;;;;5091581;28;20520;-65
2021/12/08 08:21:10;;;;;;;2.60;1.97;;;-12.90;94.30;;;;;;5092147;28;20024;-65
2021/12/08 08:23:36;;;;;;;1.77;1.67;;;-12.90;94.30;;;;;;5091855;28;20028;-65
2021/12/08 08:26:05;;;;;;;2.70;1.95;;;-13.00;94.80;;;;;;5091567;28;20024;-66
2021/12/08 08:28:31;;;;;;;3.67;2.20;;;-13.10;95.00;;;;;;5091342;28;20067;-63
2021/12/08 08:31:03;;;;;;;2.35;2.15;;;-13.10;95.20;;;;;;5091960;28;20056;-63
2021/12/08 08:33:31;;;;;;;5.40;2.15;;;-13.10;95.40;;;;;;5098641;28;20031;-63
2021/12/08 08:36:04;;;;;;;3.70;1.88;;;-13.10;94.70;;;;;;5100271;28;20028;-63
2021/12/08 08:38:50;;;;;;;5.85;2.20;;;-13.10;94.50;;;;;;5111535;28;20028;-63
2021/12/08 08:41:31;;;;;;;3.03;1.95;;;-13.20;94.60;;;;;;5112423;28;20459;-64
2021/12/08 08:44:00;;;;;;;2.25;2.05;;;-13.30;94.90;;;;;;5112303;28;20024;-62
2021/12/08 08:46:33;;;;;;;2.60;1.85;;;-13.30;95.00;;;;;;5112014;28;20387;-62
2021/12/08 08:49:05;;;;;;;1.80;1.70;;;-13.40;95.40;;;;;;5110520;28;20574;-62
2021/12/08 08:51:34;;;;;;;2.22;2.05;;;-13.40;95.40;;;;;;5098707;28;20388;-63
2021/12/08 08:54:06;;;;;;;4.53;1.70;;;-13.50;95.50;;;;;;5091652;28;20032;-62
2021/12/08 08:56:36;;;;;;;5.25;2.38;;;-13.00;99.90;;;;;;5091365;28;20072;-62
2021/12/08 08:59:12;;;;;;;4.10;1.77;;;-12.40;99.90;;;;;;5091535;28;20035;-61
2021/12/08 09:01:42;;;;;;;2.05;1.95;;;-12.80;99.90;;;;;;5093497;28;20032;-62
2021/12/08 09:04:14;;;;;;;3.17;2.40;;;-13.20;99.90;;;;;;5116409;28;20103;-63
2021/12/08 09:06:44;;;;;;;5.05;2.60;;;-13.50;99.90;;;;;;5108948;28;20031;-62
2021/12/08 09:09:15;;;;;;;5.20;3.10;;;-13.50;99.90;;;;;;5106911;28;20028;-62
2021/12/08 09:11:49;;;;;;;5.25;2.97;;;-13.50;99.90;;;;;;5105362;28;20404;-62
2021/12/08 09:14:23;;;;;;;6.03;3.55;;;-13.50;99.70;;;;;;5104782;28;20039;-62
2021/12/08 09:16:57;;;;;;;3.35;2.70;;;-13.50;98.50;;;;;;5096567;28;20500;-62
2021/12/08 09:19:31;;;;;;;2.90;2.40;;;-13.50;97.70;;;;;;5101154;28;20024;-62
2021/12/08 09:22:05;;;;;;;1.52;1.42;;;-13.60;97.20;;;;;;5095644;28;20028;-61
2021/12/08 09:24:46;;;;;;;5.65;2.60;;;-13.20;99.90;;;;;;5095644;28;20032;-61
2021/12/08 09:27:19;;;;;;;2.65;2.05;;;-11.00;99.90;;;;;;5095814;28;20023;-62
2021/12/08 09:30:10;;;;;;;4.78;2.55;;;-10.10;99.90;;;;;;5102449;28;20439;-62
2021/12/08 09:32:53;;;;;;;4.10;2.55;;;-10.90;99.90;;;;;;5109644;28;20051;-62
2021/12/08 09:35:25;;;;;;;3.38;2.17;;;-11.50;99.90;;;;;;5115804;28;20560;-62
2021/12/08 09:37:57;;;;;;;2.90;2.38;;;-12.00;99.90;;;;;;5115766;28;20055;-62
2021/12/08 09:40:32;;;;;;;4.63;2.50;;;-12.30;99.90;;;;;;5115661;28;20028;-62
2021/12/08 09:43:02;;;;;;;3.15;2.38;;;-12.50;99.90;;;;;;5115725;28;20035;-63
2021/12/08 09:45:35;;;;;;;1.20;1.13;;;-12.70;99.90;;;;;;5115732;28;20107;-62
2021/12/08 09:48:04;;;;;;;5.47;2.90;;;-12.40;99.90;;;;;;5115098;28;20036;-62
2021/12/08 09:50:31;;;;;;;3.28;2.22;;;-10.10;99.90;;;;;;5114907;28;20053;-62
2021/12/08 09:52:57;;;;;;;5.82;2.00;;;-10.30;99.90;;;;;;5114679;27;20447;-62
2021/12/08 09:55:23;;;;;;;2.95;1.90;;;-11.10;99.90;;;;;;5114580;28;20028;-62
2021/12/08 09:57:50;;;;;;;3.25;1.73;;;-11.90;99.90;;;;;;5114473;28;20031;-62
2021/12/08 10:00:25;;;;;;;3.13;2.30;;;-12.20;99.90;;;;;;5113182;28;20047;-62
2021/12/08 10:02:57;;;;;;;3.72;3.00;;;-12.00;99.90;;;;;;5114929;28;20058;-63
2021/12/08 10:05:25;;;;;;;4.90;3.03;;;-12.20;99.90;;;;;;5115327;28;20065;-62
2021/12/08 10:07:51;;;;;;;5.38;3.20;;;-12.40;99.90;;;;;;5115063;28;20391;-62
2021/12/08 10:10:18;;;;;;;4.28;3.17;;;-12.50;99.90;;;;;;5115264;28;20383;-62
2021/12/08 10:12:44;;;;;;;4.43;2.75;;;-12.60;99.90;;;;;;5115009;28;20440;-62
2021/12/08 10:15:14;;;;;;;5.95;2.33;;;-12.70;99.90;;;;;;5114380;28;20024;-62
2021/12/08 10:17:40;;;;;;;2.38;2.17;;;-12.80;99.90;;;;;;5115006;28;20145;-62
2021/12/08 10:20:32;;;;;;;1.67;1.58;;;-12.90;98.10;;;;;;5114862;28;20118;-62
2021/12/08 10:23:15;;;;;;;1.85;1.63;;;-13.20;98.50;;;;;;5115130;28;20031;-62
2021/12/08 10:26:09;;;;;;;2.40;2.20;;;-13.50;98.70;;;;;;5114626;28;20047;-63
2021/12/08 10:28:43;;;;;;;8.73;2.58;;;-13.60;99.70;;;;;;5113474;28;20051;-62
2021/12/08 10:31:24;;;;;;;2.17;1.98;;;-13.70;99.80;;;;;;5113946;28;20035;-62
2021/12/08 10:36:54;;;;;;;7.28;2.78;;;-13.70;99.90;;;;;;5104705;28;20051;-62
2021/12/08 10:39:34;;;;;;;3.10;2.80;;;-13.60;99.50;;;;;;5101640;28;20063;-62
2021/12/08 10:42:22;;;;;;;6.53;2.17;;;-13.60;98.80;;;;;;5104300;28;20032;-64
2021/12/08 10:47:43;;;;;;;3.03;1.83;;;-13.70;97.10;;;;;;5102338;28;20437;-63
2021/12/08 10:56:00;;;;;;;4.07;2.50;;;-14.10;97.90;;;;;;5104307;28;20148;-63
2021/12/08 10:58:28;;;;;;;5.35;2.33;;;-14.20;97.90;;;;;;5105219;28;20024;-62
2021/12/08 11:00:56;;;;;;;2.85;2.50;;;-14.20;98.20;;;;;;5113614;28;20040;-63
2021/12/08 11:03:23;;;;;;;4.05;2.47;;;-14.20;98.10;;;;;;5113699;28;20024;-63
2021/12/08 11:05:55;;;;;;;2.53;2.33;;;-14.30;97.50;;;;;;5113825;28;20391;-63
2021/12/08 11:08:32;;;;;;;3.70;2.40;;;-14.40;98.00;;;;;;5113738;28;20020;-64
2021/12/08 11:10:58;;;;;;;6.43;2.85;;;-14.50;98.40;;;;;;5113873;28;20027;-63
2021/12/08 11:13:46;;;;;;;10.18;4.28;;;-14.50;98.60;;;;;;5113587;28;20415;-63
2021/12/08 11:16:12;;;;;;;8.35;4.13;;;-14.50;98.50;;;;;;5113596;28;20027;-65
2021/12/08 11:18:40;;;;;;;6.63;2.90;;;-14.50;98.50;;;;;;5113543;28;20027;-63
2021/12/08 11:21:21;;;;;;;6.30;3.40;;;-14.50;98.60;;;;;;5113755;28;20028;-62
2021/12/08 11:23:50;;;;;;;7.32;3.95;;;-14.40;98.10;;;;;;5113554;28;20031;-62
2021/12/08 11:26:40;;;;;;;8.73;4.38;;;-14.40;97.20;;;;;;5114087;28;20027;-63
2021/12/08 11:29:19;;;;;;;4.45;3.08;;;-14.40;97.20;;;;;;5113565;28;20020;-62
2021/12/08 11:31:48;;;;;;;4.13;2.78;;;-14.40;96.60;;;;;;5113384;28;20510;-62
2021/12/08 11:34:21;;;;;;;7.60;4.00;;;-14.40;96.10;;;;;;5113418;28;20108;-63
2021/12/08 11:36:51;;;;;;;6.97;3.90;;;-14.40;96.30;;;;;;5113237;28;20501;-62
2021/12/08 11:39:38;;;;;;;9.80;3.88;;;-14.40;96.00;;;;;;5113365;28;20027;-62
2021/12/08 11:42:13;;;;;;;4.78;2.63;;;-14.50;95.80;;;;;;5113682;28;20364;-62
2021/12/08 11:44:51;;;;;;;2.83;2.50;;;-14.60;95.70;;;;;;5113079;28;20478;-62
2021/12/08 11:47:24;;;;;;;5.20;2.15;;;-14.60;96.20;;;;;;5113251;28;20019;-63
2021/12/08 11:49:53;;;;;;;2.88;2.13;;;-14.70;96.50;;;;;;5113132;28;20088;-63
2021/12/08 11:52:23;;;;;;;5.63;3.30;;;-14.60;96.30;;;;;;5113360;28;20027;-62
2021/12/08 11:55:09;;;;;;;2.63;2.42;;;-14.60;96.00;;;;;;5112956;28;20027;-62
2021/12/08 11:57:42;;;;;;;2.45;2.25;;;-14.50;95.00;;;;;;5114536;28;20031;-63
2021/12/08 12:00:22;;;;;;;2.92;2.50;;;-14.50;94.50;;;;;;5112840;28;20050;-63
2021/12/08 12:03:09;;;;;;;3.30;2.55;;;-14.50;94.10;;;;;;5123562;27;20049;-63
2021/12/08 12:05:46;;;;;;;4.18;2.65;;;-14.50;93.40;;;;;;5133389;27;20102;-63
2021/12/08 12:08:15;;;;;;;5.88;2.40;;;-14.40;93.20;;;;;;5133312;27;20027;-63
2021/12/08 12:10:44;;;;;;;4.85;2.80;;;-14.40;92.90;;;;;;5132859;27;20437;-63
2021/12/08 12:13:11;;;;;;;5.18;3.53;;;-14.40;92.60;;;;;;5133344;27;20031;-63
2021/12/08 12:15:41;;;;;;;16.42;5.45;;;-14.50;92.40;;;;;;5133127;27;20367;-63
2021/12/08 12:18:08;;;;;;;;;;;-14.50;92.30;;;;;;5132441;27;20492;-63
2021/12/08 12:20:41;;;;;;;14.27;4.82;;;-14.50;92.30;;;;;;5133226;27;19997;-63
2021/12/08 12:23:42;;;;;;;4.32;2.53;;;-14.50;92.60;;;;;;5133453;27;20158;-63
2021/12/08 12:26:29;;;;;;;3.13;2.63;;;-14.50;92.40;;;;;;5114312;27;20023;-63
2021/12/08 12:29:12;;;;;;;5.40;2.70;;;-14.60;91.80;;;;;;5112270;28;20365;-63
2021/12/08 12:32:09;;;;;;;2.25;2.05;;;-14.60;92.10;;;;;;5112433;28;20282;-63
2021/12/08 12:34:39;;;;;;;3.38;1.77;;;-14.90;92.80;;;;;;5112270;28;20016;-63
2021/12/08 12:37:28;;;;;;;1.83;1.73;;;-15.00;93.30;;;;;;5111854;28;20032;-63
2021/12/08 12:39:57;;;;;;;2.78;2.00;;;-15.10;93.90;;;;;;5112486;28;20417;-63
2021/12/08 12:42:24;;;;;;;2.03;1.92;;;-15.10;94.00;;;;;;5112642;28;20073;-63
2021/12/08 12:45:01;;;;;;;2.25;1.85;;;-15.20;94.40;;;;;;5112455;28;20107;-63
2021/12/08 12:47:28;;;;;;;2.28;2.08;;;-15.30;94.80;;;;;;5112742;28;20107;-64
2021/12/08 12:50:03;;;;;;;2.10;2.00;;;-15.30;95.10;;;;;;5112028;28;20030;-63
2021/12/08 12:52:42;;;;;;;3.95;1.98;;;-15.40;95.50;;;;;;5112069;28;20087;-63
2021/12/08 12:55:18;;;;;;;1.70;1.60;;;-15.40;95.80;;;;;;5112203;28;20023;-63
2021/12/08 12:58:05;;;;;;;1.92;1.80;;;-15.40;99.90;;;;;;5112033;28;20030;-63
2021/12/08 13:00:44;;;;;;;1.92;1.80;;;-15.00;99.90;;;;;;5111779;28;20047;-63
2021/12/08 13:03:35;;;;;;;2.22;1.85;;;-15.20;99.90;;;;;;5112111;28;20024;-63
2021/12/08 13:06:02;;;;;;;3.92;1.60;;;-15.30;99.40;;;;;;5111927;28;20042;-63
2021/12/08 13:08:36;;;;;;;4.03;2.00;;;-15.50;98.70;;;;;;5112155;28;20035;-64
2021/12/08 13:11:27;;;;;;;2.60;1.88;;;-15.10;99.90;;;;;;5111577;28;20110;-63
2021/12/08 13:13:54;;;;;;;1.95;1.85;;;-14.80;99.90;;;;;;5111586;28;20107;-63
2021/12/08 13:16:33;;;;;;;2.33;1.50;;;-15.10;99.90;;;;;;5112001;28;20027;-63
2021/12/08 13:19:02;;;;;;;1.70;1.60;;;-14.00;99.90;;;;;;5111564;28;20032;-63
2021/12/08 13:21:49;;;;;;;1.80;1.70;;;-14.40;99.90;;;;;;5111511;28;20051;-63
2021/12/08 13:24:33;;;;;;;1.95;1.85;;;-15.00;99.90;;;;;;5111758;28;20024;-63
2021/12/08 13:27:08;;;;;;;1.83;1.73;;;-15.40;99.90;;;;;;5111786;28;20038;-64
2021/12/08 13:29:39;;;;;;;2.03;1.92;;;-15.50;99.90;;;;;;5111981;28;20019;-63
2021/12/08 13:32:26;;;;;;;2.72;2.00;;;-15.60;99.90;;;;;;5111772;28;20038;-63
2021/12/08 13:34:57;;;;;;;2.13;1.80;;;-15.60;99.90;;;;;;5111936;28;20020;-63
2021/12/08 13:37:25;;;;;;;1.90;1.80;;;-15.60;99.90;;;;;;5112163;28;20024;-63
2021/12/08 13:39:53;;;;;;;2.47;2.00;;;-15.60;99.90;;;;;;5111601;28;20095;-63
2021/12/08 13:42:28;;;;;;;2.33;2.13;;;-15.50;99.90;;;;;;5111858;28;20028;-63
2021/12/08 13:45:16;;;;;;;2.45;2.20;;;-15.40;99.90;;;;;;5111636;28;20063;-63
2021/12/08 13:47:44;;;;;;;1.80;1.70;;;-15.30;99.90;;;;;;5111924;28;20012;-63
2021/12/08 13:50:15;;;;;;;2.35;2.05;;;-15.30;99.90;;;;;;5114216;28;20490;-64
2021/12/08 13:52:43;;;;;;;2.97;2.03;;;-15.30;99.70;;;;;;5115608;28;20480;-63
2021/12/08 13:55:09;;;;;;;1.85;1.75;;;-15.20;99.70;;;;;;5115199;28;20089;-63
2021/12/08 13:57:37;;;;;;;2.90;1.90;;;-15.20;99.80;;;;;;5114031;28;20069;-63
2021/12/08 14:00:08;;;;;;;3.40;1.92;;;-15.10;99.70;;;;;;5115055;28;20526;-63
2021/12/08 14:02:37;;;;;;;6.15;2.33;;;-15.10;99.50;;;;;;5115242;28;20485;-65